Time;durP1;ratioP1;P1;durP2;ratioP2;P2;SDS_P1;SDS_P2;PMS_P1;PMS_P2;Temp;Humidity;BMP_temperature;BMP_pressure;BME280_temperature;BME280_humidity;BME280_pressure;Samples;Min_cycle;Max_cycle;Signal;HPM_P1;HPM_P2
2022/06/03 00:00:33;;;;;;;4.13;3.63;;;15.90;99.90;;;;;;5033355;28;20222;-80
2022/06/03 00:03:28;;;;;;;4.13;3.72;;;15.80;99.90;;;;;;5016918;28;20203;-81
2022/06/03 00:06:21;;;;;;;4.57;3.60;;;15.80;99.90;;;;;;5033425;28;20186;-81
2022/06/03 00:09:01;;;;;;;4.97;3.75;;;15.60;99.90;;;;;;5016894;28;20208;-81
2022/06/03 00:11:38;;;;;;;4.45;3.92;;;15.70;99.90;;;;;;5034764;28;20172;-81
2022/06/03 00:14:09;;;;;;;3.75;3.42;;;15.60;99.90;;;;;;5034326;28;20174;-80
2022/06/03 00:17:13;;;;;;;7.65;4.18;;;15.60;99.90;;;;;;5033507;28;20180;-81
2022/06/03 00:19:57;;;;;;;5.50;3.83;;;15.60;99.90;;;;;;5033421;28;20290;-81
2022/06/03 00:23:11;;;;;;;6.03;3.63;;;15.60;99.90;;;;;;5033472;28;20539;-80
2022/06/03 00:26:04;;;;;;;4.93;3.83;;;15.60;99.90;;;;;;4941342;28;20182;-81
2022/06/03 00:28:48;;;;;;;6.53;3.50;;;15.50;99.90;;;;;;5033492;28;20195;-81
2022/06/03 00:31:20;;;;;;;5.97;3.72;;;15.50;99.90;;;;;;5034456;28;20222;-81
2022/06/03 00:34:13;;;;;;;5.75;3.88;;;15.50;99.90;;;;;;5033196;28;20647;-81
2022/06/03 00:37:02;;;;;;;6.40;3.35;;;15.40;99.90;;;;;;5034284;28;20171;-81
2022/06/03 00:39:44;;;;;;;4.85;3.90;;;15.30;99.90;;;;;;5033994;28;20219;-81
2022/06/03 00:42:34;;;;;;;4.60;3.63;;;15.30;99.90;;;;;;5016434;28;20573;-81
2022/06/03 00:45:09;;;;;;;3.95;3.65;;;15.20;99.90;;;;;;5033959;28;20204;-81
2022/06/03 00:48:01;;;;;;;7.07;3.90;;;15.50;99.90;;;;;;5033797;28;20175;-81
2022/06/03 00:50:42;;;;;;;4.10;3.70;;;15.50;99.90;;;;;;5016023;28;20266;-81
2022/06/03 00:53:51;;;;;;;7.32;3.88;;;15.20;99.90;;;;;;5034158;28;20192;-81
2022/06/03 00:56:36;;;;;;;4.22;3.83;;;15.10;99.90;;;;;;5034034;28;20531;-80
2022/06/03 00:59:25;;;;;;;9.40;4.43;;;15.10;99.90;;;;;;5033876;28;20215;-81
2022/06/03 01:02:14;;;;;;;4.43;4.13;;;15.00;99.90;;;;;;5032654;28;20179;-81
2022/06/03 01:05:17;;;;;;;3.97;3.67;;;15.10;99.90;;;;;;5032402;28;20712;-81
2022/06/03 01:07:42;;;;;;;14.68;4.47;;;14.90;99.90;;;;;;5033809;28;20171;-81
2022/06/03 01:10:13;;;;;;;4.60;3.65;;;15.00;99.90;;;;;;5032388;28;20192;-81
2022/06/03 01:13:12;;;;;;;12.13;4.72;;;14.80;99.90;;;;;;5033353;28;20221;-81
2022/06/03 01:16:13;;;;;;;3.90;3.60;;;14.90;99.90;;;;;;5032283;28;20178;-81
2022/06/03 01:19:16;;;;;;;4.68;3.38;;;14.80;99.90;;;;;;5031935;28;20222;-81
2022/06/03 01:22:01;;;;;;;4.40;4.00;;;14.90;99.90;;;;;;5033503;28;20167;-81
2022/06/03 01:25:01;;;;;;;4.60;4.20;;;14.80;99.90;;;;;;5033392;28;20175;-81
2022/06/03 01:27:55;;;;;;;10.40;3.63;;;14.60;99.90;;;;;;5015632;28;20184;-81
2022/06/03 01:30:48;;;;;;;6.22;3.90;;;14.60;99.90;;;;;;5031821;28;20164;-81
2022/06/03 01:33:20;;;;;;;5.57;3.92;;;14.60;99.90;;;;;;5033255;28;20177;-80
2022/06/03 01:36:17;;;;;;;8.40;4.38;;;14.70;99.90;;;;;;5031678;28;20175;-81
2022/06/03 01:39:01;;;;;;;4.95;4.00;;;14.70;99.90;;;;;;5015417;28;20212;-81
2022/06/03 01:41:33;;;;;;;5.22;4.20;;;14.70;99.90;;;;;;5015502;28;20197;-81
2022/06/03 01:44:36;;;;;;;8.02;3.90;;;14.60;99.90;;;;;;5015311;28;20513;-81
2022/06/03 01:47:20;;;;;;;3.80;3.50;;;14.50;99.90;;;;;;5031585;28;20676;-81
2022/06/03 01:50:09;;;;;;;11.25;4.10;;;14.60;99.90;;;;;;5031401;28;20253;-81
2022/06/03 01:52:34;;;;;;;4.68;4.28;;;14.60;99.90;;;;;;5033110;28;20164;-80
2022/06/03 01:55:34;;;;;;;4.88;4.32;;;14.80;99.90;;;;;;5031806;28;20214;-81
2022/06/03 01:58:20;;;;;;;4.35;3.95;;;14.70;99.90;;;;;;5032562;28;20296;-81
2022/06/03 02:01:06;;;;;;;4.53;3.80;;;14.60;99.90;;;;;;5031427;28;20202;-81
2022/06/03 02:03:57;;;;;;;5.95;3.92;;;14.70;99.90;;;;;;5014479;28;20183;-81
2022/06/03 02:06:54;;;;;;;7.00;4.38;;;14.50;99.90;;;;;;5015196;28;20190;-81
2022/06/03 02:09:50;;;;;;;5.05;4.47;;;14.60;99.90;;;;;;5031683;28;20210;-81
2022/06/03 02:12:34;;;;;;;3.92;3.63;;;14.60;99.90;;;;;;5032820;28;20221;-81
2022/06/03 02:15:15;;;;;;;3.97;3.67;;;14.50;99.90;;;;;;5031454;28;20203;-81
2022/06/03 02:17:59;;;;;;;4.78;4.15;;;14.40;99.90;;;;;;5031402;28;20207;-81
2022/06/03 02:21:06;;;;;;;6.75;4.13;;;14.30;99.90;;;;;;5031163;28;20643;-81
2022/06/03 02:23:31;;;;;;;5.03;4.55;;;14.30;99.90;;;;;;4986474;28;20200;-81
2022/06/03 02:26:16;;;;;;;5.88;3.85;;;14.20;99.90;;;;;;5031120;28;20643;-81
2022/06/03 02:32:29;;;;;;;4.35;3.95;;;14.20;99.90;;;;;;5032671;28;20589;-80
2022/06/03 02:35:29;;;;;;;5.88;3.95;;;14.20;99.90;;;;;;5030658;28;20691;-81
2022/06/03 02:38:09;;;;;;;8.05;4.18;;;14.00;99.90;;;;;;5013841;28;20250;-81
2022/06/03 02:40:52;;;;;;;5.55;3.90;;;13.90;99.90;;;;;;5030770;28;20187;-81
2022/06/03 02:44:00;;;;;;;4.18;3.88;;;14.10;99.90;;;;;;5014507;28;20648;-81
2022/06/03 02:47:06;;;;;;;4.20;3.83;;;14.20;99.90;;;;;;5031037;28;20532;-81
2022/06/03 02:50:17;;;;;;;5.47;4.30;;;14.10;99.90;;;;;;5014258;28;20282;-81
2022/06/03 02:52:50;;;;;;;4.68;4.28;;;14.10;99.90;;;;;;5017826;28;20168;-80
2022/06/03 02:55:44;;;;;;;4.88;3.90;;;14.00;99.90;;;;;;5036280;28;20269;-81
2022/06/03 02:58:15;;;;;;;4.50;4.10;;;14.10;99.90;;;;;;5034750;28;20230;-81
2022/06/03 03:01:02;;;;;;;5.70;4.25;;;14.10;99.90;;;;;;5034940;28;20221;-81
2022/06/03 03:03:49;;;;;;;5.22;4.07;;;14.00;99.90;;;;;;5035955;28;20182;-81
2022/06/03 03:06:26;;;;;;;3.83;3.53;;;14.00;99.90;;;;;;5036278;28;20218;-81
2022/06/03 03:09:10;;;;;;;4.60;4.18;;;13.90;99.90;;;;;;5034571;28;20203;-81
2022/06/03 03:12:07;;;;;;;4.80;3.58;;;13.80;99.90;;;;;;5035574;28;20182;-81
2022/06/03 03:15:19;;;;;;;4.35;3.95;;;13.90;99.90;;;;;;5034213;28;20182;-81
2022/06/03 03:17:57;;;;;;;4.35;3.95;;;13.90;99.90;;;;;;5017884;28;20325;-81
2022/06/03 03:20:35;;;;;;;6.90;3.53;;;13.80;99.90;;;;;;5035643;28;20230;-82
2022/06/03 03:23:16;;;;;;;4.63;4.22;;;13.80;99.90;;;;;;5035675;28;20217;-81
2022/06/03 03:25:58;;;;;;;4.28;3.97;;;13.90;99.90;;;;;;5034620;28;20176;-81
2022/06/03 03:28:46;;;;;;;5.85;4.32;;;13.70;99.90;;;;;;5017695;28;20286;-81
2022/06/03 03:31:29;;;;;;;3.88;3.58;;;13.80;99.90;;;;;;5035545;28;20191;-81
2022/06/03 03:34:21;;;;;;;6.25;4.28;;;13.90;99.90;;;;;;5017795;28;20202;-81
2022/06/03 03:37:22;;;;;;;6.78;4.72;;;13.90;99.90;;;;;;5017336;28;20241;-81
2022/06/03 03:40:10;;;;;;;8.30;4.97;;;13.70;99.90;;;;;;5035274;28;20198;-81
2022/06/03 03:42:54;;;;;;;9.98;4.38;;;13.70;99.90;;;;;;5035378;28;20172;-82
2022/06/03 03:46:08;;;;;;;9.10;4.53;;;13.70;99.90;;;;;;5033905;28;20194;-82
2022/06/03 03:48:52;;;;;;;12.30;4.97;;;13.70;99.90;;;;;;5016955;28;20563;-81
2022/06/03 03:51:38;;;;;;;4.90;4.40;;;13.90;99.90;;;;;;5035357;28;20170;-81
2022/06/03 03:54:04;;;;;;;5.35;4.95;;;13.90;99.90;;;;;;5017484;28;20203;-81
2022/06/03 03:57:08;;;;;;;23.73;12.18;;;13.90;99.90;;;;;;5035030;28;20238;-81
2022/06/03 03:59:55;;;;;;;5.72;5.07;;;13.70;99.90;;;;;;5035012;28;20294;-82
2022/06/03 04:02:36;;;;;;;10.40;5.05;;;13.70;99.90;;;;;;5033081;28;20246;-82
2022/06/03 04:05:38;;;;;;;11.10;4.40;;;13.80;99.90;;;;;;5033720;28;20595;-81
2022/06/03 04:08:41;;;;;;;9.30;4.60;;;14.40;99.90;;;;;;5034496;28;20706;-81
2022/06/03 04:11:44;;;;;;;9.02;4.35;;;15.00;99.90;;;;;;5033671;28;20180;-81
2022/06/03 04:14:26;;;;;;;5.20;4.70;;;15.40;99.90;;;;;;5034435;28;20290;-82
2022/06/03 04:17:29;;;;;;;8.27;4.10;;;15.40;99.90;;;;;;5033288;28;20532;-81
2022/06/03 04:20:21;;;;;;;7.95;4.70;;;15.40;99.90;;;;;;5033310;28;20204;-81
2022/06/03 04:23:21;;;;;;;7.30;4.50;;;15.20;99.90;;;;;;5017187;28;20218;-81
2022/06/03 04:26:01;;;;;;;7.75;4.72;;;15.20;99.90;;;;;;5033215;28;20180;-81
2022/06/03 04:28:46;;;;;;;9.07;4.78;;;15.10;99.90;;;;;;5033875;28;20531;-81
2022/06/03 04:31:35;;;;;;;4.43;4.03;;;14.90;99.90;;;;;;5034169;28;20172;-81
2022/06/03 04:34:38;;;;;;;4.95;4.38;;;14.90;99.90;;;;;;5016066;28;20182;-81
2022/06/03 04:37:45;;;;;;;14.82;5.22;;;14.80;99.90;;;;;;5016511;28;20521;-81
2022/06/03 04:40:41;;;;;;;6.18;5.57;;;14.80;99.90;;;;;;5032848;28;20183;-81
2022/06/03 04:43:22;;;;;;;4.95;4.45;;;14.60;99.90;;;;;;5032616;28;20186;-80
2022/06/03 04:46:25;;;;;;;6.07;4.80;;;14.60;99.90;;;;;;5032417;28;20233;-81
2022/06/03 04:49:42;;;;;;;13.05;4.45;;;14.70;99.90;;;;;;5032734;28;20290;-81
2022/06/03 04:52:45;;;;;;;9.68;4.50;;;14.90;99.90;;;;;;5016200;28;20172;-81
2022/06/03 04:55:17;;;;;;;15.15;5.40;;;14.90;99.90;;;;;;5033866;28;20237;-80
2022/06/03 04:58:11;;;;;;;8.45;4.57;;;15.00;99.90;;;;;;5032493;28;20203;-81
2022/06/03 05:01:04;;;;;;;14.35;5.57;;;15.00;99.90;;;;;;5033629;28;20164;-81
2022/06/03 05:03:55;;;;;;;15.27;5.65;;;15.00;99.90;;;;;;5032303;28;20183;-81
2022/06/03 05:06:41;;;;;;;11.52;4.97;;;15.10;99.90;;;;;;5033761;28;20172;-81
2022/06/03 05:09:35;;;;;;;6.28;5.05;;;15.30;99.90;;;;;;5032702;28;20215;-81
2022/06/03 05:12:46;;;;;;;10.05;5.13;;;15.30;99.90;;;;;;5033923;28;20172;-81
2022/06/03 05:15:29;;;;;;;15.77;5.82;;;15.30;99.90;;;;;;5016845;28;20163;-81
2022/06/03 05:18:01;;;;;;;10.73;5.53;;;15.20;99.90;;;;;;5032338;28;20238;-81
2022/06/03 05:20:58;;;;;;;7.85;5.60;;;15.20;99.90;;;;;;5031991;28;20184;-81
2022/06/03 05:23:32;;;;;;;6.07;5.07;;;15.20;99.90;;;;;;5031915;28;20176;-80
2022/06/03 05:26:40;;;;;;;12.18;5.60;;;15.20;99.90;;;;;;5032078;28;20171;-81
2022/06/03 05:29:36;;;;;;;15.38;6.55;;;15.20;99.90;;;;;;5031770;28;20203;-81
2022/06/03 05:32:38;;;;;;;22.50;7.05;;;15.20;99.90;;;;;;5032831;28;20168;-81
2022/06/03 05:35:36;;;;;;;10.65;6.10;;;15.20;99.90;;;;;;4917619;29;20218;-81
2022/06/03 05:38:29;;;;;;;12.43;5.63;;;15.40;99.90;;;;;;5033335;28;20206;-81
2022/06/03 05:44:22;;;;;;;8.82;5.85;;;15.50;99.90;;;;;;5033163;28;20266;-81
2022/06/03 05:47:02;;;;;;;8.90;5.22;;;15.60;99.90;;;;;;5032412;28;20175;-81
2022/06/03 05:49:35;;;;;;;6.20;5.60;;;15.70;99.90;;;;;;5032678;28;20241;-81
2022/06/03 05:52:17;;;;;;;9.55;5.38;;;15.80;99.90;;;;;;5013996;28;20172;-81
2022/06/03 05:55:18;;;;;;;9.00;5.35;;;15.90;99.90;;;;;;5032534;28;20195;-81
2022/06/03 05:58:13;;;;;;;23.60;6.20;;;16.00;99.90;;;;;;5016315;28;20243;-84
2022/06/03 06:00:51;;;;;;;11.45;5.28;;;16.20;99.90;;;;;;5035626;28;20175;-86
2022/06/03 06:03:32;;;;;;;21.88;6.15;;;16.40;99.90;;;;;;5032145;28;20182;-81
2022/06/03 06:06:31;;;;;;;6.95;5.60;;;16.40;99.90;;;;;;5015750;28;20177;-82
2022/06/03 06:09:05;;;;;;;6.20;5.60;;;16.30;99.90;;;;;;5032046;28;20235;-81
2022/06/03 06:11:47;;;;;;;13.93;6.43;;;16.20;99.90;;;;;;5033142;28;20178;-81
2022/06/03 06:14:32;;;;;;;8.77;5.88;;;16.40;99.90;;;;;;5015602;28;20172;-82
2022/06/03 06:17:14;;;;;;;6.70;5.68;;;16.80;99.90;;;;;;5013948;28;20171;-83
2022/06/03 06:19:48;;;;;;;10.07;6.18;;;16.60;99.90;;;;;;5031606;28;20211;-83
2022/06/03 06:22:30;;;;;;;14.18;6.10;;;16.60;99.90;;;;;;5031763;28;20171;-82
2022/06/03 06:25:20;;;;;;;9.38;5.72;;;16.80;99.90;;;;;;5013879;28;20254;-82
2022/06/03 06:28:30;;;;;;;59.00;10.63;;;16.80;99.90;;;;;;5031129;28;20207;-81
2022/06/03 06:31:29;;;;;;;14.23;6.03;;;17.10;99.90;;;;;;5006353;28;20663;-80
2022/06/03 06:34:52;;;;;;;18.35;6.03;;;17.40;99.90;;;;;;5031103;28;20200;-81
2022/06/03 06:37:37;;;;;;;9.38;5.45;;;17.50;99.90;;;;;;4916324;29;20179;-81
2022/06/03 06:40:09;;;;;;;9.23;5.38;;;17.50;99.90;;;;;;5006245;28;20208;-82
2022/06/03 06:42:53;;;;;;;5.65;5.15;;;17.30;99.90;;;;;;5031239;28;20559;-81
2022/06/03 06:45:36;;;;;;;5.75;5.25;;;17.50;99.90;;;;;;5031411;28;20186;-81
2022/06/03 06:48:04;;;;;;;22.70;6.07;;;17.60;99.90;;;;;;5013630;28;20251;-84
2022/06/03 06:50:47;;;;;;;6.25;5.60;;;17.60;99.90;;;;;;5031293;28;20601;-82
2022/06/03 06:53:17;;;;;;;21.15;5.82;;;17.80;99.90;;;;;;5028703;28;20175;-82
2022/06/03 06:56:10;;;;;;;14.80;4.60;;;18.10;99.90;;;;;;5016433;28;20206;-83
2022/06/03 06:59:03;;;;;;;9.02;3.95;;;18.50;99.90;;;;;;4993489;28;20208;-84
2022/06/03 07:02:12;;;;;;;5.43;4.25;;;19.40;99.90;;;;;;5018529;28;20183;-81
2022/06/03 07:04:44;;;;;;;8.30;4.82;;;19.80;99.90;;;;;;5017157;28;20221;-84
2022/06/03 07:07:20;;;;;;;5.35;4.55;;;20.60;99.90;;;;;;5030318;28;20169;-83
2022/06/03 07:10:06;;;;;;;5.40;3.80;;;20.50;99.90;;;;;;5031517;28;20232;-83
2022/06/03 07:12:52;;;;;;;19.63;5.10;;;20.70;99.90;;;;;;5031031;28;20217;-82
2022/06/03 07:15:25;;;;;;;7.10;4.47;;;21.10;99.90;;;;;;5014866;28;20192;-83
2022/06/03 07:21:42;;;;;;;10.23;4.20;;;21.60;99.90;;;;;;4971589;28;20194;-86
2022/06/03 07:24:37;;;;;;;9.40;4.10;;;22.00;99.90;;;;;;4955358;28;20210;-86
2022/06/03 07:27:16;;;;;;;10.00;4.82;;;22.10;99.90;;;;;;5022007;28;20290;-85
2022/06/03 07:29:54;;;;;;;22.00;3.95;;;22.60;99.90;;;;;;5015245;28;20203;-89
2022/06/03 07:32:29;;;;;;;8.20;3.67;;;22.90;99.90;;;;;;5042141;28;20624;-85
2022/06/03 07:35:00;;;;;;;7.30;3.42;;;22.70;99.90;;;;;;5051532;28;20171;-86
2022/06/03 07:37:38;;;;;;;9.82;4.30;;;22.70;99.90;;;;;;5034807;28;20160;-87
2022/06/03 07:40:27;;;;;;;7.45;3.90;;;23.50;99.90;;;;;;5037866;28;20195;-86
2022/06/03 07:43:23;;;;;;;13.15;3.42;;;23.40;99.90;;;;;;5035866;28;20179;-85
2022/06/03 07:48:27;;;;;;;4.32;2.92;;;22.80;99.90;;;;;;5002252;28;20299;-88
2022/06/03 07:50:58;;;;;;;7.65;3.20;;;22.10;99.90;;;;;;5035474;28;20175;-86
2022/06/03 07:53:53;;;;;;;3.15;2.60;;;22.20;99.90;;;;;;5032855;28;20214;-81
2022/06/03 07:56:27;;;;;;;3.53;2.35;;;21.90;99.90;;;;;;5036568;28;20183;-81
2022/06/03 07:58:56;;;;;;;10.32;2.70;;;22.10;99.90;;;;;;5033384;28;20560;-82
2022/06/03 08:01:28;;;;;;;7.65;3.15;;;21.70;99.90;;;;;;5033990;28;20182;-80
2022/06/03 08:03:59;;;;;;;5.57;2.75;;;21.50;99.90;;;;;;5015140;28;20176;-84
2022/06/03 08:10:56;;;;;;;11.30;3.08;;;21.30;99.90;;;;;;5016996;28;20160;-82
2022/06/03 08:12:07;;;;;;;12.52;2.63;;;21.30;99.90;;;;;;5035152;28;20175;-88
2022/06/03 08:14:32;;;;;;;6.95;2.50;;;21.30;99.90;;;;;;5017851;28;20175;-89
2022/06/03 08:17:02;;;;;;;3.60;3.20;;;21.60;99.90;;;;;;5035533;28;20608;-88
2022/06/03 08:19:29;;;;;;;7.63;2.40;;;21.60;99.90;;;;;;5017883;28;20219;-86
2022/06/03 08:21:58;;;;;;;6.88;2.65;;;21.50;99.90;;;;;;5017937;28;20176;-86
2022/06/03 08:24:27;;;;;;;5.55;2.58;;;21.50;99.90;;;;;;5017788;28;20249;-87
2022/06/03 08:27:01;;;;;;;6.07;2.63;;;21.70;99.90;;;;;;5016580;28;20167;-85
2022/06/03 08:29:36;;;;;;;6.75;3.10;;;21.90;99.90;;;;;;5016583;28;20199;-85
2022/06/03 08:32:07;;;;;;;11.20;2.35;;;22.00;99.90;;;;;;5033495;28;20183;-86
2022/06/03 08:34:47;;;;;;;5.05;2.70;;;22.10;99.90;;;;;;5016621;28;20171;-85
2022/06/03 08:37:23;;;;;;;8.93;2.30;;;21.90;99.90;;;;;;5034286;28;20164;-84
2022/06/03 08:39:52;;;;;;;9.77;2.67;;;21.80;99.90;;;;;;5016777;28;20211;-85
2022/06/03 08:42:29;;;;;;;5.18;2.10;;;21.90;99.90;;;;;;5033985;28;20195;-85
2022/06/03 08:45:10;;;;;;;7.47;1.98;;;22.00;99.90;;;;;;5034224;28;20182;-85
2022/06/03 08:47:58;;;;;;;7.60;2.17;;;21.90;99.90;;;;;;5033075;28;20167;-87
2022/06/03 08:50:53;;;;;;;4.97;1.95;;;22.00;99.90;;;;;;5031761;28;20192;-88
2022/06/03 08:53:43;;;;;;;3.22;2.10;;;22.00;99.90;;;;;;5015602;28;20652;-87
2022/06/03 08:56:16;;;;;;;16.88;2.05;;;22.00;99.90;;;;;;5017873;28;20175;-87
2022/06/03 08:59:01;;;;;;;6.53;1.63;;;22.10;99.90;;;;;;5016268;28;20212;-80
2022/06/03 09:01:51;;;;;;;6.70;1.77;;;22.30;99.90;;;;;;5014831;28;20180;-82
2022/06/03 09:04:20;;;;;;;8.18;2.20;;;22.20;99.90;;;;;;5014850;28;20198;-82
2022/06/03 09:07:10;;;;;;;2.75;1.55;;;22.30;99.90;;;;;;5033479;28;20172;-82
2022/06/03 09:10:16;;;;;;;5.97;1.85;;;22.50;99.90;;;;;;5014809;28;20212;-80
2022/06/03 09:12:49;;;;;;;4.70;2.28;;;22.80;99.90;;;;;;5032590;28;20160;-82
2022/06/03 09:15:22;;;;;;;5.85;2.08;;;23.00;99.90;;;;;;5014940;28;20168;-82
2022/06/03 09:17:58;;;;;;;4.65;1.90;;;23.20;99.90;;;;;;5014877;28;20250;-80
2022/06/03 09:20:34;;;;;;;3.33;1.50;;;23.00;99.90;;;;;;5034056;28;20175;-87
2022/06/03 09:23:10;;;;;;;5.88;1.80;;;23.00;99.90;;;;;;5039080;28;20164;-85
2022/06/03 09:25:42;;;;;;;10.50;1.92;;;23.30;99.90;;;;;;5021248;28;20179;-90
2022/06/03 09:28:15;;;;;;;10.95;1.95;;;23.20;99.90;;;;;;5027874;28;20192;-87
2022/06/03 09:30:42;;;;;;;8.45;1.40;;;23.50;99.90;;;;;;5022938;28;20543;-90
2022/06/03 09:33:15;;;;;;;7.82;1.83;;;23.60;99.90;;;;;;5038962;28;20183;-88
2022/06/03 09:35:46;;;;;;;7.25;1.50;;;23.60;99.90;;;;;;5021287;28;20640;-83
2022/06/03 09:38:17;;;;;;;9.68;1.48;;;23.30;99.90;;;;;;5027700;28;20235;-85
2022/06/03 09:41:13;;;;;;;3.15;1.42;;;23.10;99.90;;;;;;5052518;28;20214;-85
2022/06/03 09:44:03;;;;;;;23.60;3.65;;;22.90;99.90;;;;;;5054384;28;20176;-85
2022/06/03 09:46:31;;;;;;;2.28;1.23;;;22.90;99.90;;;;;;5029728;28;20165;-92
2022/06/03 09:48:58;;;;;;;2.35;1.40;;;22.80;99.90;;;;;;5010268;28;20188;-91
2022/06/03 09:54:24;;;;;;;10.55;1.52;;;23.00;99.90;;;;;;5032667;28;20182;-87
2022/06/03 09:56:56;;;;;;;18.63;2.35;;;23.00;99.90;;;;;;5024590;28;20168;-89
2022/06/03 09:59:23;;;;;;;2.40;1.15;;;23.10;99.90;;;;;;5034558;28;20273;-90
2022/06/03 10:01:50;;;;;;;2.05;1.50;;;23.10;99.90;;;;;;5018304;28;20192;-86
2022/06/03 10:04:17;;;;;;;10.43;1.67;;;23.30;99.90;;;;;;5037004;28;20180;-94
2022/06/03 10:06:45;;;;;;;11.20;1.60;;;23.50;99.90;;;;;;5019547;28;20163;-90
2022/06/03 10:14:44;;;;;;;6.50;1.25;;;23.10;99.90;;;;;;5036759;28;20699;-93
2022/06/03 10:17:11;;;;;;;1.30;1.20;;;23.40;99.90;;;;;;5034805;28;20179;-91
2022/06/03 10:19:37;;;;;;;3.72;1.23;;;23.50;99.90;;;;;;5015984;28;20211;-90
2022/06/03 10:22:08;;;;;;;9.88;1.40;;;23.60;99.90;;;;;;5016752;28;20174;-89
2022/06/03 10:24:34;;;;;;;1.30;1.20;;;23.80;99.90;;;;;;5015964;28;20253;-90
2022/06/03 10:27:03;;;;;;;7.68;1.75;;;23.80;99.90;;;;;;5018325;28;20167;-86
2022/06/03 10:29:30;;;;;;;2.70;1.30;;;24.10;99.90;;;;;;5016504;28;20192;-86
2022/06/03 10:32:01;;;;;;;1.20;1.10;;;24.10;99.90;;;;;;5016694;28;20302;-88
2022/06/03 10:34:32;;;;;;;19.02;1.60;;;24.00;99.90;;;;;;5016582;28;20276;-89
2022/06/03 10:36:58;;;;;;;6.93;1.65;;;24.10;99.90;;;;;;5016442;28;20195;-87
2022/06/03 10:39:30;;;;;;;2.55;1.40;;;24.30;99.90;;;;;;5016228;28;20270;-87
2022/06/03 10:41:58;;;;;;;1.83;1.40;;;24.50;99.90;;;;;;5032562;28;20170;-85
2022/06/03 10:44:33;;;;;;;1.05;1.05;;;24.50;99.20;;;;;;5014963;28;20168;-86
2022/06/03 10:47:02;;;;;;;37.65;3.03;;;24.60;99.50;;;;;;5014959;28;20183;-85
2022/06/03 10:49:30;;;;;;;20.88;3.15;;;24.70;99.90;;;;;;5015311;28;20245;-86
2022/06/03 11:03:06;;;;;;;24.98;2.55;;;25.30;97.00;;;;;;5052673;28;20236;-85
2022/06/03 11:05:36;;;;;;;15.00;1.35;;;25.40;96.70;;;;;;5050119;28;20616;-85
2022/06/03 11:08:08;;;;;;;2.33;1.35;;;25.20;97.30;;;;;;5047739;22;20162;-86
2022/06/03 11:10:50;;;;;;;1.70;1.60;;;25.10;97.30;;;;;;5016445;28;20518;-87
2022/06/03 11:13:45;;;;;;;11.65;1.58;;;25.40;97.10;;;;;;5018032;28;20164;-86
2022/06/03 11:16:15;;;;;;;1.33;1.25;;;25.30;97.30;;;;;;5007307;28;20194;-86
2022/06/03 11:18:41;;;;;;;3.38;1.40;;;25.30;97.20;;;;;;5036947;28;20231;-87
2022/06/03 11:21:19;;;;;;;17.63;1.92;;;25.40;97.30;;;;;;5019655;28;20163;-87
2022/06/03 11:23:45;;;;;;;22.00;3.78;;;25.40;97.00;;;;;;5019753;28;20654;-87
2022/06/03 11:26:10;;;;;;;6.75;1.15;;;25.50;97.00;;;;;;5019078;28;20202;-87
2022/06/03 11:28:51;;;;;;;1.40;1.10;;;25.40;96.50;;;;;;5019563;28;20196;-87
2022/06/03 11:31:33;;;;;;;2.42;1.40;;;25.20;96.80;;;;;;5019056;28;20172;-87
2022/06/03 11:34:16;;;;;;;5.47;1.25;;;25.50;96.80;;;;;;5019076;28;20274;-87
2022/06/03 11:36:50;;;;;;;6.85;1.17;;;25.50;96.80;;;;;;5018693;28;20176;-86
2022/06/03 11:39:41;;;;;;;7.78;1.50;;;25.70;96.50;;;;;;5019304;28;20222;-87
2022/06/03 11:42:27;;;;;;;9.65;1.20;;;25.80;96.60;;;;;;5010112;28;20714;-87
2022/06/03 11:45:16;;;;;;;2.03;1.50;;;26.00;96.60;;;;;;5005072;28;20188;-87
2022/06/03 11:47:54;;;;;;;2.45;1.67;;;26.20;96.60;;;;;;5018936;28;20168;-86
2022/06/03 11:50:22;;;;;;;5.75;2.55;;;25.90;96.30;;;;;;5020791;28;20242;-87
2022/06/03 11:52:50;;;;;;;4.20;1.17;;;25.70;95.90;;;;;;5019809;28;20172;-87
2022/06/03 11:55:18;;;;;;;3.72;1.25;;;25.90;94.90;;;;;;5036786;28;20176;-87
2022/06/03 11:57:51;;;;;;;2.33;1.00;;;25.90;94.60;;;;;;5018783;28;20160;-87
2022/06/03 12:00:19;;;;;;;1.52;1.30;;;26.00;93.70;;;;;;5018981;28;20211;-87
2022/06/03 12:02:59;;;;;;;7.00;1.10;;;26.10;92.90;;;;;;5018862;28;20195;-87
2022/06/03 12:05:45;;;;;;;2.65;1.20;;;26.20;92.40;;;;;;5018832;28;20178;-86
2022/06/03 12:08:27;;;;;;;9.93;1.17;;;26.20;93.40;;;;;;5015632;28;20281;-87
2022/06/03 12:11:03;;;;;;;4.97;1.00;;;25.90;93.60;;;;;;5019440;28;20171;-87
2022/06/03 12:13:33;;;;;;;8.27;1.55;;;26.20;94.00;;;;;;5019516;28;20265;-87
2022/06/03 12:16:10;;;;;;;9.10;1.80;;;26.20;93.80;;;;;;5018919;28;20168;-87
2022/06/03 12:18:37;;;;;;;17.50;1.65;;;26.30;93.80;;;;;;5019031;28;20242;-87
2022/06/03 12:21:11;;;;;;;5.72;1.20;;;26.40;93.80;;;;;;5019157;28;20172;-87
2022/06/03 12:23:37;;;;;;;3.75;1.17;;;26.30;93.60;;;;;;5014571;28;20575;-86
2022/06/03 12:26:24;;;;;;;1.42;0.88;;;26.60;93.70;;;;;;5018503;28;20184;-85
2022/06/03 12:28:52;;;;;;;8.13;1.42;;;26.70;92.30;;;;;;5018446;28;20184;-86
2022/06/03 12:31:19;;;;;;;4.68;0.93;;;26.70;92.90;;;;;;5018572;28;20172;-87
2022/06/03 12:34:06;;;;;;;4.93;1.40;;;26.30;92.30;;;;;;5018601;28;20179;-86
2022/06/03 12:36:47;;;;;;;7.22;0.82;;;26.10;92.90;;;;;;5018454;28;20184;-87
2022/06/03 12:39:55;;;;;;;3.63;1.10;;;26.60;93.00;;;;;;5019015;28;20247;-87
2022/06/03 12:42:27;;;;;;;8.63;1.40;;;26.80;93.00;;;;;;4939650;29;20175;-87
2022/06/03 12:45:03;;;;;;;8.02;1.25;;;27.20;91.50;;;;;;5008782;28;20183;-87
2022/06/03 12:47:31;;;;;;;8.23;1.50;;;27.00;91.40;;;;;;5018413;28;20194;-86
2022/06/03 12:50:26;;;;;;;2.70;1.25;;;26.90;90.90;;;;;;5018382;28;20194;-87
2022/06/03 12:53:22;;;;;;;1.35;1.20;;;26.70;90.70;;;;;;5018065;28;20245;-88
2022/06/03 12:55:59;;;;;;;2.30;0.95;;;27.30;90.40;;;;;;5018411;28;20552;-87
2022/06/03 12:58:48;;;;;;;15.10;1.38;;;27.40;91.20;;;;;;5017555;28;20210;-87
2022/06/03 13:01:31;;;;;;;2.47;0.98;;;27.10;92.20;;;;;;5019311;28;20167;-88
2022/06/03 13:04:25;;;;;;;13.25;1.23;;;27.00;91.90;;;;;;5024216;28;20172;-87
2022/06/03 13:07:15;;;;;;;1.33;1.02;;;26.90;92.20;;;;;;5018910;28;20290;-87
2022/06/03 13:10:04;;;;;;;1.45;1.20;;;26.60;91.80;;;;;;5017691;28;20219;-87
2022/06/03 13:12:32;;;;;;;16.10;2.03;;;26.70;92.00;;;;;;5007382;28;20187;-86
2022/06/03 13:15:36;;;;;;;11.38;1.40;;;26.60;92.00;;;;;;5017752;28;20180;-86
2022/06/03 13:18:13;;;;;;;5.25;1.15;;;26.80;91.90;;;;;;5017876;28;20237;-87
2022/06/03 13:20:49;;;;;;;1.13;1.05;;;26.70;92.20;;;;;;5018213;28;20183;-87
2022/06/03 13:23:38;;;;;;;7.78;1.20;;;26.90;91.60;;;;;;5025508;28;20175;-88
2022/06/03 13:26:22;;;;;;;1.23;1.02;;;27.00;91.60;;;;;;5017422;28;20179;-87
2022/06/03 13:28:56;;;;;;;5.07;1.30;;;26.70;91.70;;;;;;5017714;28;20192;-88
2022/06/03 13:31:30;;;;;;;13.63;1.25;;;26.70;91.80;;;;;;5018380;28;20274;-88
2022/06/03 13:34:12;;;;;;;9.80;1.30;;;26.70;91.70;;;;;;5036343;28;20194;-88
2022/06/03 13:36:37;;;;;;;5.97;1.45;;;26.60;92.00;;;;;;5048651;28;20152;-85
2022/06/03 13:39:13;;;;;;;1.60;1.10;;;26.80;91.50;;;;;;5034785;28;20234;-84
2022/06/03 13:44:40;;;;;;;2.13;1.10;;;26.80;90.70;;;;;;5056202;28;20202;-88
2022/06/03 13:47:13;;;;;;;6.97;1.63;;;27.00;90.80;;;;;;5034808;28;20218;-88
2022/06/03 13:49:48;;;;;;;7.93;1.13;;;27.00;90.90;;;;;;5026634;28;20206;-88
2022/06/03 13:52:23;;;;;;;3.03;1.30;;;27.30;90.90;;;;;;5017751;28;20159;-88
2022/06/03 13:54:53;;;;;;;9.07;1.15;;;27.40;90.80;;;;;;5017349;28;20171;-88
2022/06/03 13:57:28;;;;;;;1.98;1.17;;;27.20;90.90;;;;;;5017391;28;20576;-89
2022/06/03 14:00:22;;;;;;;2.20;0.90;;;27.20;90.60;;;;;;5016655;28;20211;-88
2022/06/03 14:02:51;;;;;;;5.93;0.95;;;27.00;90.50;;;;;;5017366;28;20221;-87
2022/06/03 14:05:29;;;;;;;2.58;0.80;;;27.10;90.80;;;;;;5016818;28;20168;-88
2022/06/03 14:08:01;;;;;;;1.77;0.90;;;27.00;90.70;;;;;;5016805;28;20210;-88
2022/06/03 14:10:43;;;;;;;3.63;0.82;;;27.20;90.30;;;;;;5016983;28;20172;-88
2022/06/03 14:13:14;;;;;;;12.38;1.10;;;27.30;89.40;;;;;;5016316;28;20172;-89
2022/06/03 14:15:55;;;;;;;3.75;1.00;;;27.30;89.70;;;;;;5016477;28;20502;-88
2022/06/03 14:18:49;;;;;;;2.17;1.30;;;27.20;90.00;;;;;;5034367;28;20627;-88
2022/06/03 14:21:41;;;;;;;4.90;1.00;;;27.10;90.40;;;;;;5017251;28;20175;-89
2022/06/03 14:24:21;;;;;;;6.45;1.27;;;27.10;90.10;;;;;;5007539;28;20270;-86
2022/06/03 14:27:00;;;;;;;3.30;0.90;;;27.10;90.20;;;;;;5016717;28;20171;-86
2022/06/03 14:29:33;;;;;;;5.93;1.25;;;26.90;90.40;;;;;;5016322;28;20200;-86
2022/06/03 14:32:08;;;;;;;2.33;1.05;;;27.10;90.70;;;;;;5016562;28;20164;-87
2022/06/03 14:35:11;;;;;;;1.80;1.00;;;27.20;90.70;;;;;;5016641;28;20620;-85
2022/06/03 14:37:36;;;;;;;3.17;1.27;;;27.30;90.30;;;;;;5016082;28;20197;-87
2022/06/03 14:40:09;;;;;;;3.75;1.15;;;27.30;90.00;;;;;;5016010;28;20239;-88
2022/06/03 14:42:38;;;;;;;6.28;1.00;;;27.40;90.20;;;;;;5016491;28;20259;-88